Time,TemperatureF,DewpointF,PressureIn,WindDirection,WindDirectionDegrees,WindSpeedMPH,WindSpeedGustMPH,Humidity,HourlyPrecipIn,Conditions,Clouds,dailyrainin,SoftwareType,DateUTC
2013-06-14 00:00:00,52.3,47.6,29.67,North,-999,0.0,0.0,84,0.06,,,-99.99,WeatherLink 5.5,2013-06-14 04:00:00,
2013-06-14 00:05:00,52.3,47.6,29.66,North,-999,0.0,0.0,84,0.07,,,-99.99,WeatherLink 5.5,2013-06-14 04:05:00,
2013-06-14 00:10:00,52.5,47.8,29.66,North,-999,0.0,0.0,84,0.06,,,-99.99,WeatherLink 5.5,2013-06-14 04:10:00,
2013-06-14 00:15:00,52.5,47.8,29.66,North,-999,0.0,0.0,84,0.06,,,-99.99,WeatherLink 5.5,2013-06-14 04:15:00,
2013-06-14 00:20:00,52.5,48.1,29.66,North,-999,0.0,0.0,85,0.07,,,-99.99,WeatherLink 5.5,2013-06-14 04:20:00,
2013-06-14 00:25:00,52.5,48.1,29.66,North,-999,0.0,0.0,85,0.06,,,-99.99,WeatherLink 5.5,2013-06-14 04:25:00,
2013-06-14 00:30:00,52.5,48.1,29.66,North,-999,0.0,0.0,85,0.06,,,-99.99,WeatherLink 5.5,2013-06-14 04:30:00,
2013-06-14 00:35:00,52.6,48.2,29.65,North,-999,0.0,1.0,85,0.06,,,-99.99,WeatherLink 5.5,2013-06-14 04:35:00,
2013-06-14 00:40:00,52.6,48.2,29.65,North,-999,0.0,0.0,85,0.05,,,-99.99,WeatherLink 5.5,2013-06-14 04:40:00,
2013-06-14 00:45:00,52.6,48.2,29.65,North,-999,0.0,0.0,85,0.05,,,-99.99,WeatherLink 5.5,2013-06-14 04:45:00,
2013-06-14 00:50:00,52.8,48.4,29.65,North,-999,0.0,0.0,85,0.05,,,-99.99,WeatherLink 5.5,2013-06-14 04:50:00,
2013-06-14 00:55:00,52.8,48.4,29.65,North,-999,0.0,0.0,85,0.05,,,-99.99,WeatherLink 5.5,2013-06-14 04:55:00,
2013-06-14 01:00:00,52.8,48.4,29.65,North,-999,0.0,0.0,85,0.05,,,-99.99,WeatherLink 5.5,2013-06-14 05:00:00,
2013-06-14 01:05:00,53.0,48.6,29.64,NE,45,0.0,1.0,85,0.04,,,-99.99,WeatherLink 5.5,2013-06-14 05:05:00,
2013-06-14 01:10:00,53.2,48.8,29.64,NE,45,0.0,1.0,85,0.05,,,-99.99,WeatherLink 5.5,2013-06-14 05:10:00,
2013-06-14 01:15:00,53.2,48.8,29.64,NE,45,0.0,1.0,85,0.05,,,-99.99,WeatherLink 5.5,2013-06-14 05:15:00,
2013-06-14 01:20:00,53.2,48.8,29.65,North,-999,0.0,0.0,85,0.05,,,-99.99,WeatherLink 5.5,2013-06-14 05:20:00,
2013-06-14 01:25:00,53.0,48.6,29.65,North,0,0.0,1.0,85,0.05,,,-99.99,WeatherLink 5.5,2013-06-14 05:25:00,
2013-06-14 01:30:00,53.0,48.6,29.65,North,0,0.0,1.0,85,0.05,,,-99.99,WeatherLink 5.5,2013-06-14 05:30:00,
2013-06-14 01:35:00,52.9,48.5,29.65,NE,45,0.0,4.0,85,0.05,,,-99.99,WeatherLink 5.5,2013-06-14 05:35:00,
2013-06-14 01:40:00,52.9,48.5,29.65,NE,45,0.0,2.0,85,0.05,,,-99.99,WeatherLink 5.5,2013-06-14 05:40:00,
2013-06-14 01:45:00,52.9,48.5,29.65,NE,45,0.0,2.0,85,0.05,,,-99.99,WeatherLink 5.5,2013-06-14 05:45:00,
2013-06-14 01:50:00,52.8,48.4,29.64,North,-999,0.0,0.0,85,0.05,,,-99.99,WeatherLink 5.5,2013-06-14 05:50:00,
2013-06-14 01:55:00,52.6,48.2,29.64,NE,45,0.0,2.0,85,0.06,,,-99.99,WeatherLink 5.5,2013-06-14 05:55:00,
2013-06-14 02:00:00,52.6,48.2,29.64,NE,45,0.0,2.0,85,0.06,,,-99.99,WeatherLink 5.5,2013-06-14 06:00:00,
2013-06-14 02:05:00,52.6,48.2,29.64,North,-999,0.0,0.0,85,0.06,,,-99.99,WeatherLink 5.5,2013-06-14 06:05:00,
2013-06-14 02:10:00,52.8,48.4,29.64,North,-999,0.0,0.0,85,0.06,,,-99.99,WeatherLink 5.5,2013-06-14 06:10:00,
2013-06-14 02:15:00,52.8,48.4,29.64,North,-999,0.0,0.0,85,0.06,,,-99.99,WeatherLink 5.5,2013-06-14 06:15:00,
2013-06-14 02:20:00,52.9,48.5,29.64,North,-999,0.0,0.0,85,0.06,,,-99.99,WeatherLink 5.5,2013-06-14 06:20:00,
2013-06-14 02:25:00,52.9,48.5,29.64,NE,45,0.0,1.0,85,0.07,,,-99.99,WeatherLink 5.5,2013-06-14 06:25:00,
2013-06-14 02:30:00,52.9,48.5,29.64,NE,45,0.0,1.0,85,0.07,,,-99.99,WeatherLink 5.5,2013-06-14 06:30:00,
2013-06-14 02:35:00,52.9,48.5,29.63,East,90,0.0,2.0,85,0.08,,,-99.99,WeatherLink 5.5,2013-06-14 06:35:00,
2013-06-14 02:40:00,52.9,48.5,29.63,East,90,0.0,1.0,85,0.09,,,-99.99,WeatherLink 5.5,2013-06-14 06:40:00,
2013-06-14 02:45:00,52.9,48.5,29.63,East,90,0.0,1.0,85,0.09,,,-99.99,WeatherLink 5.5,2013-06-14 06:45:00,
2013-06-14 02:50:00,52.8,48.4,29.63,East,90,0.0,2.0,85,0.10,,,-99.99,WeatherLink 5.5,2013-06-14 06:50:00,
2013-06-14 02:55:00,52.6,48.2,29.63,North,-999,0.0,0.0,85,0.09,,,-99.99,WeatherLink 5.5,2013-06-14 06:55:00,
2013-06-14 03:00:00,52.6,48.2,29.63,North,-999,0.0,0.0,85,0.09,,,-99.99,WeatherLink 5.5,2013-06-14 07:00:00,
2013-06-14 03:05:00,52.6,48.2,29.63,North,-999,0.0,0.0,85,0.10,,,-99.99,WeatherLink 5.5,2013-06-14 07:05:00,
2013-06-14 03:10:00,52.6,48.2,29.63,North,-999,0.0,0.0,85,0.09,,,-99.99,WeatherLink 5.5,2013-06-14 07:10:00,
2013-06-14 03:15:00,52.6,48.2,29.63,North,-999,0.0,0.0,85,0.09,,,-99.99,WeatherLink 5.5,2013-06-14 07:15:00,
2013-06-14 03:20:00,52.8,48.4,29.63,North,-999,0.0,0.0,85,0.09,,,-99.99,WeatherLink 5.5,2013-06-14 07:20:00,
2013-06-14 03:25:00,52.8,48.4,29.63,East,90,0.0,1.0,85,0.09,,,-99.99,WeatherLink 5.5,2013-06-14 07:25:00,
2013-06-14 03:30:00,52.8,48.4,29.63,East,90,0.0,1.0,85,0.09,,,-99.99,WeatherLink 5.5,2013-06-14 07:30:00,
2013-06-14 03:35:00,52.8,48.4,29.63,North,-999,0.0,0.0,85,0.09,,,-99.99,WeatherLink 5.5,2013-06-14 07:35:00,
2013-06-14 03:40:00,52.8,48.4,29.63,North,-999,0.0,0.0,85,0.08,,,-99.99,WeatherLink 5.5,2013-06-14 07:40:00,
2013-06-14 03:45:00,52.8,48.4,29.63,North,-999,0.0,0.0,85,0.08,,,-99.99,WeatherLink 5.5,2013-06-14 07:45:00,
2013-06-14 03:50:00,52.9,48.5,29.64,North,-999,0.0,0.0,85,0.08,,,-99.99,WeatherLink 5.5,2013-06-14 07:50:00,
2013-06-14 03:55:00,52.9,48.5,29.64,North,-999,0.0,0.0,85,0.09,,,-99.99,WeatherLink 5.5,2013-06-14 07:55:00,
2013-06-14 04:00:00,52.9,48.5,29.64,North,-999,0.0,0.0,85,0.09,,,-99.99,WeatherLink 5.5,2013-06-14 08:00:00,
2013-06-14 04:05:00,53.0,48.6,29.65,East,90,0.0,1.0,85,0.08,,,-99.99,WeatherLink 5.5,2013-06-14 08:05:00,
2013-06-14 04:10:00,53.0,48.6,29.65,East,90,0.0,1.0,85,0.09,,,-99.99,WeatherLink 5.5,2013-06-14 08:10:00,
2013-06-14 04:15:00,53.0,48.6,29.65,East,90,0.0,1.0,85,0.09,,,-99.99,WeatherLink 5.5,2013-06-14 08:15:00,
2013-06-14 04:20:00,53.2,48.8,29.64,North,-999,0.0,0.0,85,0.09,,,-99.99,WeatherLink 5.5,2013-06-14 08:20:00,
2013-06-14 04:25:00,53.2,48.8,29.64,East,90,0.0,1.0,85,0.09,,,-99.99,WeatherLink 5.5,2013-06-14 08:25:00,
2013-06-14 04:30:00,53.2,48.8,29.64,East,90,0.0,1.0,85,0.09,,,-99.99,WeatherLink 5.5,2013-06-14 08:30:00,
2013-06-14 04:35:00,53.3,49.2,29.65,SSE,157,0.0,1.0,86,0.08,,,-99.99,WeatherLink 5.5,2013-06-14 08:35:00,
2013-06-14 04:40:00,53.3,49.2,29.65,SSE,157,0.0,4.0,86,0.08,,,-99.99,WeatherLink 5.5,2013-06-14 08:40:00,
2013-06-14 04:45:00,53.3,49.2,29.65,SSE,157,0.0,4.0,86,0.08,,,-99.99,WeatherLink 5.5,2013-06-14 08:45:00,
2013-06-14 04:50:00,53.3,49.2,29.65,SSW,202,0.0,1.0,86,0.08,,,-99.99,WeatherLink 5.5,2013-06-14 08:50:00,
2013-06-14 04:55:00,53.2,49.1,29.65,SSW,202,0.0,1.0,86,0.07,,,-99.99,WeatherLink 5.5,2013-06-14 08:55:00,
2013-06-14 05:00:00,53.2,49.1,29.65,SSW,202,0.0,1.0,86,0.07,,,-99.99,WeatherLink 5.5,2013-06-14 09:00:00,
2013-06-14 05:05:00,53.2,49.1,29.65,SSW,202,0.0,2.0,86,0.08,,,-99.99,WeatherLink 5.5,2013-06-14 09:05:00,
2013-06-14 05:10:00,53.2,48.8,29.65,North,-999,0.0,0.0,85,0.08,,,-99.99,WeatherLink 5.5,2013-06-14 09:10:00,
2013-06-14 05:15:00,53.2,48.8,29.65,North,-999,0.0,0.0,85,0.08,,,-99.99,WeatherLink 5.5,2013-06-14 09:15:00,
2013-06-14 05:20:00,53.0,48.9,29.65,North,-999,0.0,0.0,86,0.08,,,-99.99,WeatherLink 5.5,2013-06-14 09:20:00,
2013-06-14 05:25:00,53.0,48.9,29.65,North,-999,0.0,0.0,86,0.08,,,-99.99,WeatherLink 5.5,2013-06-14 09:25:00,
2013-06-14 05:30:00,53.0,48.9,29.65,North,-999,0.0,0.0,86,0.08,,,-99.99,WeatherLink 5.5,2013-06-14 09:30:00,
2013-06-14 05:35:00,52.9,48.8,29.65,North,-999,0.0,0.0,86,0.08,,,-99.99,WeatherLink 5.5,2013-06-14 09:35:00,
2013-06-14 05:40:00,52.9,48.8,29.65,North,-999,0.0,0.0,86,0.09,,,-99.99,WeatherLink 5.5,2013-06-14 09:40:00,
2013-06-14 05:45:00,52.9,48.8,29.65,North,-999,0.0,0.0,86,0.09,,,-99.99,WeatherLink 5.5,2013-06-14 09:45:00,
2013-06-14 05:50:00,52.8,48.7,29.65,South,180,0.0,1.0,86,0.09,,,-99.99,WeatherLink 5.5,2013-06-14 09:50:00,
2013-06-14 05:55:00,52.8,48.7,29.65,North,-999,0.0,0.0,86,0.10,,,-99.99,WeatherLink 5.5,2013-06-14 09:55:00,
2013-06-14 06:00:00,52.8,48.7,29.65,North,-999,0.0,0.0,86,0.10,,,-99.99,WeatherLink 5.5,2013-06-14 10:00:00,
2013-06-14 06:05:00,52.8,48.7,29.65,North,-999,0.0,0.0,86,0.09,,,-99.99,WeatherLink 5.5,2013-06-14 10:05:00,
2013-06-14 06:10:00,52.8,48.7,29.65,South,180,0.0,1.0,86,0.09,,,-99.99,WeatherLink 5.5,2013-06-14 10:10:00,
2013-06-14 06:15:00,52.8,48.7,29.65,South,180,0.0,1.0,86,0.09,,,-99.99,WeatherLink 5.5,2013-06-14 10:15:00,
2013-06-14 06:20:00,52.8,48.7,29.66,North,-999,0.0,0.0,86,0.09,,,-99.99,WeatherLink 5.5,2013-06-14 10:20:00,
2013-06-14 06:25:00,52.6,48.5,29.66,South,180,0.0,1.0,86,0.08,,,-99.99,WeatherLink 5.5,2013-06-14 10:25:00,
2013-06-14 06:30:00,52.6,48.5,29.66,South,180,0.0,1.0,86,0.08,,,-99.99,WeatherLink 5.5,2013-06-14 10:30:00,
2013-06-14 06:35:00,52.6,48.5,29.66,North,-999,0.0,0.0,86,0.11,,,-99.99,WeatherLink 5.5,2013-06-14 10:35:00,
2013-06-14 06:40:00,52.6,48.5,29.66,North,-999,0.0,0.0,86,0.11,,,-99.99,WeatherLink 5.5,2013-06-14 10:40:00,
2013-06-14 06:45:00,52.6,48.5,29.66,North,-999,0.0,0.0,86,0.11,,,-99.99,WeatherLink 5.5,2013-06-14 10:45:00,
2013-06-14 06:50:00,52.8,48.7,29.67,South,180,0.0,1.0,86,0.10,,,-99.99,WeatherLink 5.5,2013-06-14 10:50:00,
2013-06-14 06:55:00,52.9,48.8,29.67,North,-999,0.0,0.0,86,0.09,,,-99.99,WeatherLink 5.5,2013-06-14 10:55:00,
2013-06-14 07:00:00,52.9,48.8,29.67,North,-999,0.0,0.0,86,0.09,,,-99.99,WeatherLink 5.5,2013-06-14 11:00:00,
2013-06-14 07:05:00,53.0,48.9,29.67,North,-999,0.0,0.0,86,0.08,,,-99.99,WeatherLink 5.5,2013-06-14 11:05:00,
2013-06-14 07:10:00,53.2,49.1,29.67,North,-999,0.0,0.0,86,0.07,,,-99.99,WeatherLink 5.5,2013-06-14 11:10:00,
2013-06-14 07:15:00,53.2,49.1,29.67,North,-999,0.0,0.0,86,0.07,,,-99.99,WeatherLink 5.5,2013-06-14 11:15:00,
2013-06-14 07:20:00,53.2,49.1,29.68,North,-999,0.0,0.0,86,0.07,,,-99.99,WeatherLink 5.5,2013-06-14 11:20:00,
2013-06-14 07:25:00,53.2,49.1,29.68,North,-999,0.0,0.0,86,0.07,,,-99.99,WeatherLink 5.5,2013-06-14 11:25:00,
2013-06-14 07:30:00,53.2,49.1,29.68,North,-999,0.0,0.0,86,0.07,,,-99.99,WeatherLink 5.5,2013-06-14 11:30:00,
2013-06-14 07:35:00,53.3,49.2,29.68,South,180,0.0,1.0,86,0.03,,,-99.99,WeatherLink 5.5,2013-06-14 11:35:00,
2013-06-14 07:40:00,53.5,49.4,29.68,North,-999,0.0,0.0,86,0.02,,,-99.99,WeatherLink 5.5,2013-06-14 11:40:00,
2013-06-14 07:45:00,53.5,49.4,29.68,North,-999,0.0,0.0,86,0.02,,,-99.99,WeatherLink 5.5,2013-06-14 11:45:00,
2013-06-14 07:50:00,53.5,49.4,29.69,NE,45,1.0,4.0,86,0.01,,,-99.99,WeatherLink 5.5,2013-06-14 11:50:00,
2013-06-14 07:55:00,53.6,49.5,29.69,NE,45,0.0,1.0,86,0.01,,,-99.99,WeatherLink 5.5,2013-06-14 11:55:00,
2013-06-14 08:00:00,53.6,49.5,29.69,NE,45,0.0,1.0,86,0.01,,,-99.99,WeatherLink 5.5,2013-06-14 12:00:00,
2013-06-14 08:05:00,53.9,49.8,29.69,North,-999,0.0,0.0,86,0.01,,,-99.99,WeatherLink 5.5,2013-06-14 12:05:00,
2013-06-14 08:10:00,53.9,49.8,29.69,NE,45,0.0,1.0,86,0.01,,,-99.99,WeatherLink 5.5,2013-06-14 12:10:00,
2013-06-14 08:15:00,53.9,49.8,29.69,NE,45,0.0,1.0,86,0.01,,,-99.99,WeatherLink 5.5,2013-06-14 12:15:00,
2013-06-14 08:20:00,53.8,49.7,29.69,NE,45,0.0,4.0,86,0.00,,,-99.99,WeatherLink 5.5,2013-06-14 12:20:00,
2013-06-14 08:25:00,53.9,49.8,29.69,North,-999,0.0,0.0,86,0.00,,,-99.99,WeatherLink 5.5,2013-06-14 12:25:00,
2013-06-14 08:30:00,53.9,49.8,29.69,North,-999,0.0,0.0,86,0.00,,,-99.99,WeatherLink 5.5,2013-06-14 12:30:00,
2013-06-14 08:35:00,53.9,49.8,29.69,North,-999,0.0,0.0,86,0.00,,,-99.99,WeatherLink 5.5,2013-06-14 12:35:00,
2013-06-14 08:40:00,53.9,49.8,29.69,NE,45,0.0,1.0,86,0.00,,,-99.99,WeatherLink 5.5,2013-06-14 12:40:00,
2013-06-14 08:45:00,53.9,49.8,29.69,NE,45,0.0,1.0,86,0.00,,,-99.99,WeatherLink 5.5,2013-06-14 12:45:00,
2013-06-14 08:50:00,54.1,50.0,29.69,North,-999,0.0,0.0,86,0.00,,,-99.99,WeatherLink 5.5,2013-06-14 12:50:00,
2013-06-14 08:55:00,54.2,50.1,29.69,NE,45,0.0,1.0,86,0.00,,,-99.99,WeatherLink 5.5,2013-06-14 12:55:00,
2013-06-14 09:00:00,54.2,50.1,29.69,NE,45,0.0,1.0,86,0.00,,,-99.99,WeatherLink 5.5,2013-06-14 13:00:00,
2013-06-14 09:05:00,54.2,50.1,29.69,North,-999,0.0,0.0,86,0.00,,,-99.99,WeatherLink 5.5,2013-06-14 13:05:00,
2013-06-14 09:10:00,54.4,50.3,29.69,North,-999,0.0,0.0,86,0.00,,,-99.99,WeatherLink 5.5,2013-06-14 13:10:00,
2013-06-14 09:15:00,54.4,50.3,29.69,North,-999,0.0,0.0,86,0.00,,,-99.99,WeatherLink 5.5,2013-06-14 13:15:00,
2013-06-14 09:20:00,54.2,50.1,29.69,North,-999,0.0,0.0,86,0.00,,,-99.99,WeatherLink 5.5,2013-06-14 13:20:00,
2013-06-14 09:25:00,54.7,50.6,29.69,North,-999,0.0,0.0,86,0.00,,,-99.99,WeatherLink 5.5,2013-06-14 13:25:00,
2013-06-14 09:30:00,54.7,50.6,29.69,North,-999,0.0,0.0,86,0.00,,,-99.99,WeatherLink 5.5,2013-06-14 13:30:00,
2013-06-14 09:35:00,54.5,50.1,29.69,North,-999,0.0,0.0,85,0.00,,,-99.99,WeatherLink 5.5,2013-06-14 13:35:00,
2013-06-14 09:40:00,55.0,50.9,29.69,North,-999,0.0,0.0,86,0.00,,,-99.99,WeatherLink 5.5,2013-06-14 13:40:00,
2013-06-14 09:45:00,55.0,50.9,29.69,North,-999,0.0,0.0,86,0.00,,,-99.99,WeatherLink 5.5,2013-06-14 13:45:00,
2013-06-14 09:50:00,55.7,51.3,29.69,NW,315,0.0,2.0,85,0.00,,,-99.99,WeatherLink 5.5,2013-06-14 13:50:00,
2013-06-14 09:55:00,55.6,50.8,29.69,NNE,22,0.0,1.0,84,0.00,,,-99.99,WeatherLink 5.5,2013-06-14 13:55:00,
2013-06-14 10:00:00,55.6,50.8,29.69,NNE,22,0.0,1.0,84,0.00,,,-99.99,WeatherLink 5.5,2013-06-14 14:00:00,
2013-06-14 10:05:00,56.7,51.6,29.69,WNW,292,0.0,2.0,83,0.00,,,-99.99,WeatherLink 5.5,2013-06-14 14:05:00,
2013-06-14 10:10:00,56.7,51.3,29.69,NNW,337,0.0,1.0,82,0.00,,,-99.99,WeatherLink 5.5,2013-06-14 14:10:00,
2013-06-14 10:15:00,56.7,51.3,29.69,NNW,337,0.0,1.0,82,0.00,,,-99.99,WeatherLink 5.5,2013-06-14 14:15:00,
2013-06-14 10:20:00,57.7,50.9,29.68,WSW,247,1.0,6.0,78,0.00,,,-99.99,WeatherLink 5.5,2013-06-14 14:20:00,
2013-06-14 10:25:00,57.7,50.2,29.68,WSW,247,1.0,4.0,76,0.00,,,-99.99,WeatherLink 5.5,2013-06-14 14:25:00,
2013-06-14 10:30:00,57.7,50.2,29.68,WSW,247,1.0,4.0,76,0.00,,,-99.99,WeatherLink 5.5,2013-06-14 14:30:00,
2013-06-14 10:35:00,58.7,50.1,29.68,WSW,247,0.0,1.0,73,0.00,,,-99.99,WeatherLink 5.5,2013-06-14 14:35:00,
2013-06-14 10:40:00,59.6,50.6,29.68,WSW,247,0.0,1.0,72,0.00,,,-99.99,WeatherLink 5.5,2013-06-14 14:40:00,
2013-06-14 10:45:00,59.6,50.6,29.68,WSW,247,0.0,1.0,72,0.00,,,-99.99,WeatherLink 5.5,2013-06-14 14:45:00,
2013-06-14 10:50:00,60.1,50.3,29.68,North,-999,0.0,0.0,70,0.00,,,-99.99,WeatherLink 5.5,2013-06-14 14:50:00,
2013-06-14 10:55:00,60.7,50.9,29.68,SW,225,0.0,1.0,70,0.00,,,-99.99,WeatherLink 5.5,2013-06-14 14:55:00,
2013-06-14 11:00:00,60.7,50.9,29.68,SW,225,0.0,1.0,70,0.00,,,-99.99,WeatherLink 5.5,2013-06-14 15:00:00,
2013-06-14 11:05:00,60.6,49.6,29.68,North,-999,0.0,0.0,67,0.00,,,-99.99,WeatherLink 5.5,2013-06-14 15:05:00,
2013-06-14 11:10:00,60.4,50.2,29.68,North,-999,0.0,0.0,69,0.00,,,-99.99,WeatherLink 5.5,2013-06-14 15:10:00,
2013-06-14 11:15:00,60.4,50.2,29.68,North,-999,0.0,0.0,69,0.00,,,-99.99,WeatherLink 5.5,2013-06-14 15:15:00,
2013-06-14 11:20:00,60.9,50.7,29.69,WSW,247,0.0,1.0,69,0.00,,,-99.99,WeatherLink 5.5,2013-06-14 15:20:00,
2013-06-14 11:25:00,60.7,49.7,29.69,WSW,247,1.0,7.0,67,0.00,,,-99.99,WeatherLink 5.5,2013-06-14 15:25:00,
2013-06-14 11:30:00,60.7,49.7,29.69,WSW,247,1.0,7.0,67,0.00,,,-99.99,WeatherLink 5.5,2013-06-14 15:30:00,
2013-06-14 11:35:00,60.7,49.7,29.69,SW,225,0.0,1.0,67,0.00,,,-99.99,WeatherLink 5.5,2013-06-14 15:35:00,
2013-06-14 11:40:00,61.2,50.6,29.69,North,-999,0.0,0.0,68,0.00,,,-99.99,WeatherLink 5.5,2013-06-14 15:40:00,
2013-06-14 11:45:00,61.2,50.6,29.69,North,-999,0.0,0.0,68,0.00,,,-99.99,WeatherLink 5.5,2013-06-14 15:45:00,
2013-06-14 11:50:00,62.0,49.3,29.70,WSW,247,0.0,1.0,63,0.00,,,-99.99,WeatherLink 5.5,2013-06-14 15:50:00,
2013-06-14 11:55:00,62.3,49.5,29.70,North,-999,0.0,0.0,63,0.00,,,-99.99,WeatherLink 5.5,2013-06-14 15:55:00,
2013-06-14 12:00:00,62.3,49.5,29.70,North,-999,0.0,0.0,63,0.00,,,-99.99,WeatherLink 5.5,2013-06-14 16:00:00,
2013-06-14 12:05:00,63.1,50.3,29.70,West,270,0.0,4.0,63,0.00,,,-99.99,WeatherLink 5.5,2013-06-14 16:05:00,
2013-06-14 12:10:00,62.9,49.7,29.70,West,270,0.0,4.0,62,0.00,,,-99.99,WeatherLink 5.5,2013-06-14 16:10:00,
2013-06-14 12:15:00,62.9,49.7,29.70,West,270,0.0,4.0,62,0.00,,,-99.99,WeatherLink 5.5,2013-06-14 16:15:00,
2013-06-14 12:20:00,64.2,49.6,29.70,West,270,1.0,6.0,59,0.00,,,-99.99,WeatherLink 5.5,2013-06-14 16:20:00,
2013-06-14 12:25:00,64.2,49.6,29.70,West,270,0.0,6.0,59,0.00,,,-99.99,WeatherLink 5.5,2013-06-14 16:25:00,
2013-06-14 12:30:00,64.2,49.6,29.70,West,270,0.0,6.0,59,0.00,,,-99.99,WeatherLink 5.5,2013-06-14 16:30:00,
2013-06-14 12:35:00,65.3,49.7,29.70,WNW,292,0.0,1.0,57,0.00,,,-99.99,WeatherLink 5.5,2013-06-14 16:35:00,
2013-06-14 12:40:00,65.7,50.5,29.70,West,270,1.0,8.0,58,0.00,,,-99.99,WeatherLink 5.5,2013-06-14 16:40:00,
2013-06-14 12:45:00,65.7,50.5,29.70,West,270,1.0,8.0,58,0.00,,,-99.99,WeatherLink 5.5,2013-06-14 16:45:00,
2013-06-14 12:50:00,66.3,49.6,29.69,ENE,67,0.0,4.0,55,0.00,,,-99.99,WeatherLink 5.5,2013-06-14 16:50:00,
2013-06-14 12:55:00,66.8,49.1,29.69,ENE,67,0.0,1.0,53,0.00,,,-99.99,WeatherLink 5.5,2013-06-14 16:55:00,
2013-06-14 13:00:00,66.8,49.1,29.69,ENE,67,0.0,1.0,53,0.00,,,-99.99,WeatherLink 5.5,2013-06-14 17:00:00,
2013-06-14 13:05:00,67.1,48.9,29.69,SW,225,0.0,2.0,52,0.00,,,-99.99,WeatherLink 5.5,2013-06-14 17:05:00,
2013-06-14 13:10:00,67.0,49.8,29.69,SW,225,1.0,10.0,54,0.00,,,-99.99,WeatherLink 5.5,2013-06-14 17:10:00,
2013-06-14 13:15:00,67.0,49.8,29.69,SW,225,1.0,10.0,54,0.00,,,-99.99,WeatherLink 5.5,2013-06-14 17:15:00,
2013-06-14 13:20:00,67.3,47.5,29.69,WSW,247,0.0,4.0,49,0.00,,,-99.99,WeatherLink 5.5,2013-06-14 17:20:00,
2013-06-14 13:25:00,67.5,47.7,29.69,WSW,247,1.0,6.0,49,0.00,,,-99.99,WeatherLink 5.5,2013-06-14 17:25:00,
2013-06-14 13:30:00,67.5,47.7,29.69,WSW,247,1.0,6.0,49,0.00,,,-99.99,WeatherLink 5.5,2013-06-14 17:30:00,
2013-06-14 13:35:00,67.6,47.8,29.69,WSW,247,3.0,7.0,49,0.00,,,-99.99,WeatherLink 5.5,2013-06-14 17:35:00,
2013-06-14 13:40:00,67.8,48.5,29.69,SSW,202,3.0,13.0,50,0.00,,,-99.99,WeatherLink 5.5,2013-06-14 17:40:00,
2013-06-14 13:45:00,67.8,48.5,29.69,SSW,202,3.0,13.0,50,0.00,,,-99.99,WeatherLink 5.5,2013-06-14 17:45:00,
2013-06-14 13:50:00,69.0,49.6,29.68,SW,225,2.0,10.0,50,0.00,,,-99.99,WeatherLink 5.5,2013-06-14 17:50:00,
2013-06-14 13:55:00,69.1,48.6,29.68,SW,225,0.0,7.0,48,0.00,,,-99.99,WeatherLink 5.5,2013-06-14 17:55:00,
2013-06-14 14:00:00,69.1,48.6,29.68,SW,225,0.0,7.0,48,0.00,,,-99.99,WeatherLink 5.5,2013-06-14 18:00:00,
2013-06-14 14:05:00,69.5,48.9,29.68,West,270,2.0,6.0,48,0.00,,,-99.99,WeatherLink 5.5,2013-06-14 18:05:00,
2013-06-14 14:10:00,69.8,49.8,29.68,East,90,0.0,1.0,49,0.00,,,-99.99,WeatherLink 5.5,2013-06-14 18:10:00,
2013-06-14 14:15:00,69.8,49.8,29.68,East,90,0.0,1.0,49,0.00,,,-99.99,WeatherLink 5.5,2013-06-14 18:15:00,
2013-06-14 14:20:00,70.1,48.4,29.68,WSW,247,2.0,7.0,46,0.00,,,-99.99,WeatherLink 5.5,2013-06-14 18:20:00,
2013-06-14 14:25:00,69.8,48.1,29.68,WSW,247,3.0,7.0,46,0.00,,,-99.99,WeatherLink 5.5,2013-06-14 18:25:00,
2013-06-14 14:30:00,69.8,48.1,29.68,WSW,247,3.0,7.0,46,0.00,,,-99.99,WeatherLink 5.5,2013-06-14 18:30:00,
2013-06-14 14:35:00,70.3,50.2,29.68,WSW,247,0.0,4.0,49,0.00,,,-99.99,WeatherLink 5.5,2013-06-14 18:35:00,
2013-06-14 14:40:00,70.8,49.6,29.68,SSW,202,0.0,1.0,47,0.00,,,-99.99,WeatherLink 5.5,2013-06-14 18:40:00,
2013-06-14 14:45:00,70.8,49.6,29.68,SSW,202,0.0,1.0,47,0.00,,,-99.99,WeatherLink 5.5,2013-06-14 18:45:00,
2013-06-14 14:50:00,71.2,48.2,29.67,NE,45,0.0,1.0,44,0.00,,,-99.99,WeatherLink 5.5,2013-06-14 18:50:00,
2013-06-14 14:55:00,71.7,48.6,29.67,ENE,67,1.0,7.0,44,0.00,,,-99.99,WeatherLink 5.5,2013-06-14 18:55:00,
2013-06-14 15:00:00,71.7,48.6,29.67,ENE,67,1.0,7.0,44,0.00,,,-99.99,WeatherLink 5.5,2013-06-14 19:00:00,
2013-06-14 15:05:00,71.8,49.3,29.67,WSW,247,1.0,7.0,45,0.00,,,-99.99,WeatherLink 5.5,2013-06-14 19:05:00,
2013-06-14 15:10:00,71.5,50.2,29.67,WSW,247,0.0,1.0,47,0.00,,,-99.99,WeatherLink 5.5,2013-06-14 19:10:00,
2013-06-14 15:15:00,71.5,50.2,29.67,WSW,247,0.0,1.0,47,0.00,,,-99.99,WeatherLink 5.5,2013-06-14 19:15:00,
2013-06-14 15:20:00,72.2,47.8,29.66,East,90,0.0,1.0,42,0.00,,,-99.99,WeatherLink 5.5,2013-06-14 19:20:00,
2013-06-14 15:25:00,72.9,48.5,29.66,SSW,202,0.0,6.0,42,0.00,,,-99.99,WeatherLink 5.5,2013-06-14 19:25:00,
2013-06-14 15:30:00,72.9,48.5,29.66,SSW,202,0.0,6.0,42,0.00,,,-99.99,WeatherLink 5.5,2013-06-14 19:30:00,
2013-06-14 15:35:00,73.6,45.0,29.66,WSW,247,2.0,7.0,36,0.00,,,-99.99,WeatherLink 5.5,2013-06-14 19:35:00,
2013-06-14 15:40:00,73.9,46.7,29.66,North,0,1.0,9.0,38,0.00,,,-99.99,WeatherLink 5.5,2013-06-14 19:40:00,
2013-06-14 15:45:00,73.9,46.7,29.66,North,0,1.0,9.0,38,0.00,,,-99.99,WeatherLink 5.5,2013-06-14 19:45:00,
2013-06-14 15:50:00,73.7,45.1,29.66,NE,45,0.0,2.0,36,0.00,,,-99.99,WeatherLink 5.5,2013-06-14 19:50:00,
2013-06-14 15:55:00,74.1,42.3,29.66,SW,225,2.0,11.0,32,0.00,,,-99.99,WeatherLink 5.5,2013-06-14 19:55:00,
2013-06-14 16:00:00,74.1,42.3,29.66,SW,225,2.0,11.0,32,0.00,,,-99.99,WeatherLink 5.5,2013-06-14 20:00:00,
2013-06-14 16:05:00,74.6,41.1,29.65,SW,225,3.0,8.0,30,0.00,,,-99.99,WeatherLink 5.5,2013-06-14 20:05:00,
2013-06-14 16:10:00,75.0,41.5,29.65,SW,225,1.0,7.0,30,0.00,,,-99.99,WeatherLink 5.5,2013-06-14 20:10:00,
2013-06-14 16:15:00,75.0,41.5,29.65,SW,225,1.0,7.0,30,0.00,,,-99.99,WeatherLink 5.5,2013-06-14 20:15:00,
2013-06-14 16:20:00,75.1,39.8,29.65,SW,225,3.0,8.0,28,0.00,,,-99.99,WeatherLink 5.5,2013-06-14 20:20:00,
2013-06-14 16:25:00,75.0,41.5,29.65,SW,225,2.0,9.0,30,0.00,,,-99.99,WeatherLink 5.5,2013-06-14 20:25:00,
2013-06-14 16:30:00,75.0,41.5,29.65,SW,225,2.0,9.0,30,0.00,,,-99.99,WeatherLink 5.5,2013-06-14 20:30:00,
2013-06-14 16:35:00,75.7,40.3,29.65,SW,225,1.0,7.0,28,0.05,,,-99.99,WeatherLink 5.5,2013-06-14 20:35:00,
2013-06-14 16:40:00,75.8,40.4,29.65,SW,225,1.0,7.0,28,0.23,,,-99.99,WeatherLink 5.5,2013-06-14 20:40:00,
2013-06-14 16:45:00,75.8,40.4,29.65,SW,225,1.0,7.0,28,0.23,,,-99.99,WeatherLink 5.5,2013-06-14 20:45:00,
2013-06-14 16:50:00,76.0,43.2,29.65,WSW,247,0.0,2.0,31,0.23,,,-99.99,WeatherLink 5.5,2013-06-14 20:50:00,
2013-06-14 16:55:00,76.2,41.6,29.65,SSW,202,0.0,7.0,29,0.23,,,-99.99,WeatherLink 5.5,2013-06-14 20:55:00,
2013-06-14 17:00:00,76.2,41.6,29.65,SSW,202,0.0,7.0,29,0.23,,,-99.99,WeatherLink 5.5,2013-06-14 21:00:00,
2013-06-14 17:05:00,76.0,42.3,29.65,WSW,247,3.0,8.0,30,0.25,,,-99.99,WeatherLink 5.5,2013-06-14 21:05:00,
2013-06-14 17:10:00,75.7,44.5,29.65,SW,225,2.0,9.0,33,0.25,,,-99.99,WeatherLink 5.5,2013-06-14 21:10:00,
2013-06-14 17:15:00,75.7,44.5,29.65,SW,225,2.0,9.0,33,0.25,,,-99.99,WeatherLink 5.5,2013-06-14 21:15:00,
2013-06-14 17:20:00,75.8,41.3,29.65,SW,225,0.0,6.0,29,0.25,,,-99.99,WeatherLink 5.5,2013-06-14 21:20:00,
2013-06-14 17:25:00,76.2,43.3,29.65,SW,225,0.0,2.0,31,0.25,,,-99.99,WeatherLink 5.5,2013-06-14 21:25:00,
2013-06-14 17:30:00,76.2,43.3,29.65,SW,225,0.0,2.0,31,0.25,,,-99.99,WeatherLink 5.5,2013-06-14 21:30:00,
2013-06-14 17:35:00,76.0,42.3,29.65,SW,225,2.0,7.0,30,0.20,,,-99.99,WeatherLink 5.5,2013-06-14 21:35:00,
2013-06-14 17:40:00,75.8,39.4,29.65,SW,225,1.0,7.0,27,0.02,,,-99.99,WeatherLink 5.5,2013-06-14 21:40:00,
2013-06-14 17:45:00,75.8,39.4,29.65,SW,225,1.0,7.0,27,0.02,,,-99.99,WeatherLink 5.5,2013-06-14 21:45:00,
2013-06-14 17:50:00,76.2,42.5,29.66,WSW,247,0.0,2.0,30,0.02,,,-99.99,WeatherLink 5.5,2013-06-14 21:50:00,
2013-06-14 17:55:00,76.4,44.4,29.66,WSW,247,1.0,7.0,32,0.02,,,-99.99,WeatherLink 5.5,2013-06-14 21:55:00,
2013-06-14 18:00:00,76.4,44.4,29.66,WSW,247,1.0,7.0,32,0.02,,,-99.99,WeatherLink 5.5,2013-06-14 22:00:00,
2013-06-14 18:05:00,75.8,45.4,29.66,WSW,247,0.0,1.0,34,0.00,,,-99.99,WeatherLink 5.5,2013-06-14 22:05:00,
2013-06-14 18:10:00,75.1,45.6,29.66,North,-999,0.0,0.0,35,0.00,,,-99.99,WeatherLink 5.5,2013-06-14 22:10:00,
2013-06-14 18:15:00,75.1,45.6,29.66,North,-999,0.0,0.0,35,0.00,,,-99.99,WeatherLink 5.5,2013-06-14 22:15:00,
2013-06-14 18:20:00,74.1,48.2,29.66,North,-999,0.0,0.0,40,0.00,,,-99.99,WeatherLink 5.5,2013-06-14 22:20:00,
2013-06-14 18:25:00,74.1,48.9,29.66,North,-999,0.0,0.0,41,0.00,,,-99.99,WeatherLink 5.5,2013-06-14 22:25:00,
2013-06-14 18:30:00,74.1,48.9,29.66,North,-999,0.0,0.0,41,0.00,,,-99.99,WeatherLink 5.5,2013-06-14 22:30:00,
2013-06-14 18:35:00,74.4,49.2,29.66,North,-999,0.0,0.0,41,0.00,,,-99.99,WeatherLink 5.5,2013-06-14 22:35:00,
2013-06-14 18:40:00,74.4,49.8,29.66,North,-999,0.0,0.0,42,0.00,,,-99.99,WeatherLink 5.5,2013-06-14 22:40:00,
2013-06-14 18:45:00,74.4,49.8,29.66,North,-999,0.0,0.0,42,0.00,,,-99.99,WeatherLink 5.5,2013-06-14 22:45:00,
2013-06-14 18:50:00,74.4,52.3,29.66,North,-999,0.0,0.0,46,0.00,,,-99.99,WeatherLink 5.5,2013-06-14 22:50:00,
2013-06-14 18:55:00,74.6,52.4,29.66,North,-999,0.0,0.0,46,0.00,,,-99.99,WeatherLink 5.5,2013-06-14 22:55:00,
2013-06-14 19:00:00,74.6,52.4,29.66,North,-999,0.0,0.0,46,0.00,,,-99.99,WeatherLink 5.5,2013-06-14 23:00:00,
2013-06-14 19:05:00,74.4,51.1,29.66,North,-999,0.0,0.0,44,0.00,,,-99.99,WeatherLink 5.5,2013-06-14 23:05:00,
2013-06-14 19:10:00,74.3,52.8,29.66,North,-999,0.0,0.0,47,0.00,,,-99.99,WeatherLink 5.5,2013-06-14 23:10:00,
2013-06-14 19:15:00,74.3,52.8,29.66,North,-999,0.0,0.0,47,0.00,,,-99.99,WeatherLink 5.5,2013-06-14 23:15:00,
2013-06-14 19:20:00,73.0,52.7,29.67,North,-999,0.0,0.0,49,0.00,,,-99.99,WeatherLink 5.5,2013-06-14 23:20:00,
2013-06-14 19:25:00,72.4,53.2,29.67,North,-999,0.0,0.0,51,0.00,,,-99.99,WeatherLink 5.5,2013-06-14 23:25:00,
2013-06-14 19:30:00,72.4,53.2,29.67,North,-999,0.0,0.0,51,0.00,,,-99.99,WeatherLink 5.5,2013-06-14 23:30:00,
2013-06-14 19:35:00,71.3,54.3,29.67,North,-999,0.0,0.0,55,0.00,,,-99.99,WeatherLink 5.5,2013-06-14 23:35:00,
2013-06-14 19:40:00,70.8,53.8,29.67,North,-999,0.0,0.0,55,0.00,,,-99.99,WeatherLink 5.5,2013-06-14 23:40:00,
2013-06-14 19:45:00,70.8,53.8,29.67,North,-999,0.0,0.0,55,0.00,,,-99.99,WeatherLink 5.5,2013-06-14 23:45:00,
2013-06-14 19:50:00,70.1,54.2,29.67,North,-999,0.0,0.0,57,0.00,,,-99.99,WeatherLink 5.5,2013-06-14 23:50:00,
2013-06-14 19:55:00,70.0,55.5,29.67,North,-999,0.0,0.0,60,0.00,,,-99.99,WeatherLink 5.5,2013-06-14 23:55:00,
2013-06-14 20:00:00,70.0,55.5,29.67,North,-999,0.0,0.0,60,0.00,,,-99.99,WeatherLink 5.5,2013-06-15 00:00:00,
2013-06-14 20:05:00,69.5,55.0,29.67,North,-999,0.0,0.0,60,0.00,,,-99.99,WeatherLink 5.5,2013-06-15 00:05:00,
2013-06-14 20:10:00,69.3,54.4,29.67,North,-999,0.0,0.0,59,0.00,,,-99.99,WeatherLink 5.5,2013-06-15 00:10:00,
2013-06-14 20:15:00,69.3,54.4,29.67,North,-999,0.0,0.0,59,0.00,,,-99.99,WeatherLink 5.5,2013-06-15 00:15:00,
2013-06-14 20:20:00,68.6,53.7,29.67,North,-999,0.0,0.0,59,0.00,,,-99.99,WeatherLink 5.5,2013-06-15 00:20:00,
2013-06-14 20:25:00,68.3,53.9,29.67,North,-999,0.0,0.0,60,0.00,,,-99.99,WeatherLink 5.5,2013-06-15 00:25:00,
2013-06-14 20:30:00,68.3,53.9,29.67,North,-999,0.0,0.0,60,0.00,,,-99.99,WeatherLink 5.5,2013-06-15 00:30:00,
2013-06-14 20:35:00,67.3,53.8,29.68,North,-999,0.0,0.0,62,0.00,,,-99.99,WeatherLink 5.5,2013-06-15 00:35:00,
2013-06-14 20:40:00,66.8,53.8,29.68,North,-999,0.0,0.0,63,0.00,,,-99.99,WeatherLink 5.5,2013-06-15 00:40:00,
2013-06-14 20:45:00,66.8,53.8,29.68,North,-999,0.0,0.0,63,0.00,,,-99.99,WeatherLink 5.5,2013-06-15 00:45:00,
2013-06-14 20:50:00,65.8,54.1,29.68,North,-999,0.0,0.0,66,0.00,,,-99.99,WeatherLink 5.5,2013-06-15 00:50:00,
2013-06-14 20:55:00,65.5,54.2,29.68,North,-999,0.0,0.0,67,0.00,,,-99.99,WeatherLink 5.5,2013-06-15 00:55:00,
2013-06-14 21:00:00,65.5,54.2,29.68,North,-999,0.0,0.0,67,0.00,,,-99.99,WeatherLink 5.5,2013-06-15 01:00:00,
2013-06-14 21:05:00,64.7,54.7,29.69,North,-999,0.0,0.0,70,0.00,,,-99.99,WeatherLink 5.5,2013-06-15 01:05:00,
2013-06-14 21:10:00,64.4,54.4,29.69,North,-999,0.0,0.0,70,0.00,,,-99.99,WeatherLink 5.5,2013-06-15 01:10:00,
2013-06-14 21:15:00,64.4,54.4,29.69,North,-999,0.0,0.0,70,0.00,,,-99.99,WeatherLink 5.5,2013-06-15 01:15:00,
2013-06-14 21:20:00,63.4,54.6,29.69,North,-999,0.0,0.0,73,0.00,,,-99.99,WeatherLink 5.5,2013-06-15 01:20:00,
2013-06-14 21:25:00,63.1,54.7,29.69,North,-999,0.0,0.0,74,0.00,,,-99.99,WeatherLink 5.5,2013-06-15 01:25:00,
2013-06-14 21:30:00,63.1,54.7,29.69,North,-999,0.0,0.0,74,0.00,,,-99.99,WeatherLink 5.5,2013-06-15 01:30:00,
2013-06-14 21:35:00,62.4,54.0,29.70,North,-999,0.0,0.0,74,0.00,,,-99.99,WeatherLink 5.5,2013-06-15 01:35:00,
2013-06-14 21:40:00,62.1,54.1,29.70,North,-999,0.0,0.0,75,0.00,,,-99.99,WeatherLink 5.5,2013-06-15 01:40:00,
2013-06-14 21:45:00,62.1,54.1,29.70,North,-999,0.0,0.0,75,0.00,,,-99.99,WeatherLink 5.5,2013-06-15 01:45:00,
2013-06-14 21:50:00,61.5,53.9,29.70,North,-999,0.0,0.0,76,0.00,,,-99.99,WeatherLink 5.5,2013-06-15 01:50:00,
2013-06-14 21:55:00,61.2,53.6,29.70,North,-999,0.0,0.0,76,0.00,,,-99.99,WeatherLink 5.5,2013-06-15 01:55:00,
2013-06-14 22:00:00,61.2,53.6,29.70,North,-999,0.0,0.0,76,0.00,,,-99.99,WeatherLink 5.5,2013-06-15 02:00:00,
2013-06-14 22:05:00,60.7,53.4,29.71,North,-999,0.0,0.0,77,0.00,,,-99.99,WeatherLink 5.5,2013-06-15 02:05:00,
2013-06-14 22:10:00,60.6,53.3,29.71,North,-999,0.0,0.0,77,0.00,,,-99.99,WeatherLink 5.5,2013-06-15 02:10:00,
2013-06-14 22:15:00,60.6,53.3,29.71,North,-999,0.0,0.0,77,0.00,,,-99.99,WeatherLink 5.5,2013-06-15 02:15:00,
2013-06-14 22:20:00,60.2,53.0,29.71,North,-999,0.0,0.0,77,0.00,,,-99.99,WeatherLink 5.5,2013-06-15 02:20:00,
2013-06-14 22:25:00,60.1,52.9,29.71,WSW,247,0.0,4.0,77,0.00,,,-99.99,WeatherLink 5.5,2013-06-15 02:25:00,
2013-06-14 22:30:00,60.1,52.9,29.71,WSW,247,0.0,4.0,77,0.00,,,-99.99,WeatherLink 5.5,2013-06-15 02:30:00,
2013-06-14 22:35:00,59.9,52.3,29.71,WSW,247,0.0,4.0,76,0.00,,,-99.99,WeatherLink 5.5,2013-06-15 02:35:00,
2013-06-14 22:40:00,60.1,51.8,29.71,WSW,247,0.0,2.0,74,0.00,,,-99.99,WeatherLink 5.5,2013-06-15 02:40:00,
2013-06-14 22:45:00,60.1,51.8,29.71,WSW,247,0.0,2.0,74,0.00,,,-99.99,WeatherLink 5.5,2013-06-15 02:45:00,
2013-06-14 22:50:00,60.4,51.0,29.71,WSW,247,0.0,1.0,71,0.00,,,-99.99,WeatherLink 5.5,2013-06-15 02:50:00,
2013-06-14 22:55:00,60.7,49.7,29.71,WSW,247,0.0,4.0,67,0.00,,,-99.99,WeatherLink 5.5,2013-06-15 02:55:00,
2013-06-14 23:00:00,60.7,49.7,29.71,WSW,247,0.0,4.0,67,0.00,,,-99.99,WeatherLink 5.5,2013-06-15 03:00:00,
2013-06-14 23:05:00,61.5,50.4,29.71,WSW,247,0.0,1.0,67,0.00,,,-99.99,WeatherLink 5.5,2013-06-15 03:05:00,
2013-06-14 23:10:00,61.7,49.8,29.71,WSW,247,0.0,4.0,65,0.00,,,-99.99,WeatherLink 5.5,2013-06-15 03:10:00,
2013-06-14 23:15:00,61.7,49.8,29.71,WSW,247,0.0,4.0,65,0.00,,,-99.99,WeatherLink 5.5,2013-06-15 03:15:00,
2013-06-14 23:20:00,61.8,49.5,29.72,SW,225,0.0,4.0,64,0.00,,,-99.99,WeatherLink 5.5,2013-06-15 03:20:00,
2013-06-14 23:25:00,61.8,49.5,29.72,SW,225,0.0,4.0,64,0.00,,,-99.99,WeatherLink 5.5,2013-06-15 03:25:00,
2013-06-14 23:30:00,61.8,49.5,29.72,SW,225,0.0,4.0,64,0.00,,,-99.99,WeatherLink 5.5,2013-06-15 03:30:00,
2013-06-14 23:35:00,62.0,49.7,29.72,SW,225,0.0,4.0,64,0.00,,,-99.99,WeatherLink 5.5,2013-06-15 03:35:00,
2013-06-14 23:40:00,62.0,49.3,29.72,North,-999,0.0,0.0,63,0.00,,,-99.99,WeatherLink 5.5,2013-06-15 03:40:00,
2013-06-14 23:45:00,62.0,49.3,29.72,North,-999,0.0,0.0,63,0.00,,,-99.99,WeatherLink 5.5,2013-06-15 03:45:00,
2013-06-14 23:50:00,61.8,48.6,29.73,WSW,247,0.0,1.0,62,0.00,,,-99.99,WeatherLink 5.5,2013-06-15 03:50:00,
2013-06-14 23:55:00,61.7,49.4,29.73,North,-999,0.0,0.0,64,0.00,,,-99.99,WeatherLink 5.5,2013-06-15 03:55:00,